createdAt,value
2023-03-13T00:00:36.623Z,94884.09
2023-03-13T00:03:03.126Z,94875.38
2023-03-13T00:05:29.550Z,94878.09
2023-03-13T00:07:55.922Z,94872.84
2023-03-13T00:10:22.308Z,94866.97
2023-03-13T00:12:48.758Z,94868.03
2023-03-13T00:15:15.360Z,94858.34
2023-03-13T00:17:42.364Z,94853.00
2023-03-13T00:20:10.384Z,94848.22
2023-03-13T00:22:36.740Z,94847.75
2023-03-13T00:25:03.356Z,94846.53
2023-03-13T00:27:33.048Z,94842.31
2023-03-13T00:30:00.228Z,94838.19
2023-03-13T00:32:27.127Z,94836.44
2023-03-13T00:34:54.156Z,94832.03
2023-03-13T00:37:20.548Z,94830.13
2023-03-13T00:39:47.416Z,94825.19
2023-03-13T00:42:13.927Z,94827.47
2023-03-13T00:44:40.370Z,94815.88
2023-03-13T00:47:07.204Z,94822.25
2023-03-13T00:49:33.560Z,94813.75
2023-03-13T00:52:00.764Z,94820.09
2023-03-13T00:54:27.158Z,94817.94
2023-03-13T00:56:53.511Z,94814.31
2023-03-13T00:59:20.680Z,94810.13
2023-03-13T01:01:47.962Z,94811.41
2023-03-13T01:04:14.564Z,94811.59
2023-03-13T01:06:42.140Z,94808.75
2023-03-13T01:09:11.079Z,94805.31
2023-03-13T01:11:39.996Z,94796.28
2023-03-13T01:14:08.823Z,94792.19
2023-03-13T01:16:36.460Z,94780.63
2023-03-13T01:19:05.730Z,94785.06
2023-03-13T01:21:32.351Z,94793.47
2023-03-13T01:23:58.798Z,94776.69
2023-03-13T01:26:26.442Z,94779.22
2023-03-13T01:28:54.203Z,94780.53
2023-03-13T01:31:22.644Z,94771.47
2023-03-13T01:33:50.849Z,94776.06
2023-03-13T01:36:18.276Z,94771.81
2023-03-13T01:38:48.248Z,94766.19
2023-03-13T01:41:14.718Z,94763.81
2023-03-13T01:43:44.378Z,94768.41
2023-03-13T01:46:13.276Z,94767.66
2023-03-13T01:49:06.716Z,94761.94
2023-03-13T01:51:41.649Z,94761.94
2023-03-13T01:54:11.421Z,94762.56
2023-03-13T01:56:42.739Z,94765.69
2023-03-13T01:59:13.793Z,94749.81
2023-03-13T02:01:42.703Z,94756.69
2023-03-13T02:04:12.585Z,94751.06
2023-03-13T02:06:43.367Z,94745.91
2023-03-13T02:09:14.311Z,94741.16
2023-03-13T02:11:48.377Z,94734.78
2023-03-13T02:14:16.841Z,94738.59
2023-03-13T02:16:46.971Z,94737.16
2023-03-13T02:19:18.496Z,94736.84
2023-03-13T02:21:51.196Z,94735.91
2023-03-13T02:24:27.640Z,94738.28
2023-03-13T02:26:55.077Z,94730.56
2023-03-13T02:29:21.591Z,94743.81
2023-03-13T02:31:48.519Z,94746.25
2023-03-13T02:34:20.131Z,94754.03
2023-03-13T02:36:47.483Z,94746.25
2023-03-13T02:39:17.917Z,94754.22
2023-03-13T02:41:45.680Z,94758.16
2023-03-13T02:44:13.018Z,94758.84
2023-03-13T02:46:47.805Z,94753.78
2023-03-13T02:49:24.140Z,94754.59
2023-03-13T02:51:52.490Z,94755.09
2023-03-13T02:54:22.583Z,94764.31
2023-03-13T02:56:53.706Z,94762.25
2023-03-13T02:59:21.140Z,94759.53
2023-03-13T03:01:51.897Z,94757.47
2023-03-13T03:04:20.529Z,94746.97
2023-03-13T03:06:52.993Z,94750.63
2023-03-13T03:09:20.473Z,94754.94
2023-03-13T03:11:47.008Z,94751.25
2023-03-13T03:14:15.512Z,94752.03
2023-03-13T03:16:45.693Z,94744.91
2023-03-13T03:19:12.388Z,94751.31
2023-03-13T03:21:39.018Z,94750.94
2023-03-13T03:24:06.236Z,94758.22
2023-03-13T03:26:32.787Z,94755.25
2023-03-13T03:28:59.374Z,94762.53
2023-03-13T03:31:26.154Z,94753.50
2023-03-13T03:33:53.512Z,94754.56
2023-03-13T03:36:21.926Z,94761.31
2023-03-13T03:38:49.364Z,94758.00
2023-03-13T03:41:18.796Z,94752.03
2023-03-13T03:43:46.981Z,94757.78
2023-03-13T03:46:16.009Z,94749.25
2023-03-13T03:48:43.049Z,94748.75
2023-03-13T03:51:11.565Z,94755.53
2023-03-13T03:53:40.737Z,94746.88
2023-03-13T03:56:07.674Z,94750.19
2023-03-13T03:58:36.490Z,94741.56
2023-03-13T04:01:32.051Z,94737.22
2023-03-13T04:03:58.731Z,94738.22
2023-03-13T04:06:25.794Z,94725.88
2023-03-13T04:08:52.273Z,94730.16
2023-03-13T04:11:22.582Z,94725.69
2023-03-13T04:13:52.745Z,94722.66
2023-03-13T04:16:19.303Z,94714.50
2023-03-13T04:18:47.198Z,94710.72
2023-03-13T04:21:14.863Z,94705.19
2023-03-13T04:23:45.900Z,94705.56
2023-03-13T04:26:13.705Z,94700.06
2023-03-13T04:28:41.190Z,94698.72
2023-03-13T04:31:09.287Z,94686.91
2023-03-13T04:33:54.226Z,94682.28
2023-03-13T04:36:32.401Z,94678.84
2023-03-13T04:39:28.512Z,94678.84
2023-03-13T04:42:13.712Z,94678.78
2023-03-13T04:45:01.941Z,94668.25
2023-03-13T04:47:55.336Z,94658.53
2023-03-13T04:50:40.409Z,94662.09
2023-03-13T04:53:27.066Z,94668.16
2023-03-13T04:56:03.159Z,94650.91
2023-03-13T04:58:49.945Z,94648.97
2023-03-13T05:01:45.654Z,94644.06
2023-03-13T05:04:18.026Z,94645.03
2023-03-13T05:07:04.820Z,94642.13
2023-03-13T05:10:10.359Z,94643.38
2023-03-13T05:12:47.193Z,94646.34
2023-03-13T05:15:36.766Z,94632.22
2023-03-13T05:18:32.423Z,94640.63
2023-03-13T05:21:10.258Z,94634.31
2023-03-13T05:23:52.205Z,94623.44
2023-03-13T05:26:32.148Z,94632.16
2023-03-13T05:29:10.472Z,94630.50
2023-03-13T05:32:15.541Z,94625.84
2023-03-13T05:35:20.624Z,94620.13
2023-03-13T05:38:05.805Z,94616.63
2023-03-13T05:40:54.914Z,94602.94
2023-03-13T05:43:41.545Z,94602.41
2023-03-13T05:46:18.928Z,94603.97
2023-03-13T05:49:04.853Z,94602.13
2023-03-13T05:51:43.049Z,94608.00
2023-03-13T05:54:26.296Z,94623.41
2023-03-13T05:57:21.182Z,94604.63
2023-03-13T06:00:29.429Z,94608.06
2023-03-13T06:03:13.874Z,94591.19
2023-03-13T06:05:43.970Z,94591.72
2023-03-13T06:08:29.223Z,94588.03
2023-03-13T06:10:59.289Z,94584.25
2023-03-13T06:13:25.874Z,94577.84
2023-03-13T06:15:55.624Z,94561.38
2023-03-13T06:18:39.102Z,94567.75
2023-03-13T06:21:05.959Z,94580.94
2023-03-13T06:23:32.448Z,94578.63
2023-03-13T06:26:00.265Z,94585.72
2023-03-13T06:28:26.932Z,94575.69
2023-03-13T06:30:53.937Z,94578.44
2023-03-13T06:33:20.606Z,94581.22
2023-03-13T06:35:56.128Z,94588.50
2023-03-13T06:38:23.311Z,94585.53
2023-03-13T06:40:49.910Z,94581.03
2023-03-13T06:43:16.424Z,94574.53
2023-03-13T06:45:42.857Z,94578.84
2023-03-13T06:48:09.304Z,94577.69
2023-03-13T06:50:38.192Z,94575.31
2023-03-13T06:53:05.631Z,94573.72
2023-03-13T06:55:32.194Z,94575.69
2023-03-13T06:57:58.649Z,94578.63
2023-03-13T07:00:27.988Z,94580.59
2023-03-13T07:02:54.708Z,94579.44
2023-03-13T07:05:21.166Z,94583.75
2023-03-13T07:07:47.679Z,94580.63
2023-03-13T07:10:14.832Z,94581.19
2023-03-13T07:12:41.258Z,94586.34
2023-03-13T07:15:08.146Z,94587.72
2023-03-13T07:17:34.719Z,94583.81
2023-03-13T07:20:01.315Z,94562.56
2023-03-13T07:22:27.772Z,94572.41
2023-03-13T07:24:54.304Z,94567.66
2023-03-13T07:27:22.154Z,94560.00
2023-03-13T07:29:48.614Z,94570.22
2023-03-13T07:32:15.352Z,94558.22
2023-03-13T07:34:43.808Z,94559.97
2023-03-13T07:37:10.505Z,94560.38
2023-03-13T07:39:39.821Z,94549.00
2023-03-13T07:42:06.620Z,94543.97
2023-03-13T07:44:34.428Z,94541.78
2023-03-13T07:47:01.239Z,94547.38
2023-03-13T07:49:27.807Z,94548.75
2023-03-13T07:51:54.262Z,94551.25
2023-03-13T07:54:20.755Z,94557.63
2023-03-13T07:56:48.094Z,94568.78
2023-03-13T07:59:14.470Z,94572.78
2023-03-13T08:01:41.533Z,94566.94
2023-03-13T08:04:12.249Z,94562.00
2023-03-13T08:06:40.313Z,94563.16
2023-03-13T08:09:06.804Z,94571.72
2023-03-13T08:11:33.748Z,94559.47
2023-03-13T08:14:00.188Z,94563.06
2023-03-13T08:16:28.277Z,94555.38
2023-03-13T08:18:56.921Z,94550.31
2023-03-13T08:21:25.466Z,94543.28
2023-03-13T08:23:53.592Z,94541.13
2023-03-13T08:26:21.936Z,94543.19
2023-03-13T08:28:53.467Z,94548.31
2023-03-13T08:31:22.551Z,94565.38
2023-03-13T08:33:49.535Z,94563.13
2023-03-13T08:36:19.098Z,94570.84
2023-03-13T08:38:46.875Z,94568.09
2023-03-13T08:41:15.341Z,94564.91
2023-03-13T08:43:41.813Z,94567.44
2023-03-13T08:46:08.388Z,94558.22
2023-03-13T08:48:35.044Z,94553.66
2023-03-13T08:51:02.627Z,94551.41
2023-03-13T08:53:30.290Z,94546.81
2023-03-13T08:55:56.907Z,94560.88
2023-03-13T08:58:23.533Z,94547.78
2023-03-13T09:00:49.963Z,94551.72
2023-03-13T09:03:17.246Z,94552.81
2023-03-13T09:05:55.711Z,94545.53
2023-03-13T09:08:22.949Z,94534.06
2023-03-13T09:10:55.315Z,94528.34
2023-03-13T09:13:21.742Z,94534.47
2023-03-13T09:15:54.052Z,94534.94
2023-03-13T09:18:20.598Z,94537.63
2023-03-13T09:20:48.943Z,94539.44
2023-03-13T09:23:15.879Z,94520.97
2023-03-13T09:25:42.503Z,94527.72
2023-03-13T09:28:09.678Z,94534.38
2023-03-13T09:30:36.394Z,94515.06
2023-03-13T09:33:05.604Z,94513.94
2023-03-13T09:35:32.158Z,94523.34
2023-03-13T09:37:58.542Z,94509.88
2023-03-13T09:40:27.010Z,94506.44
2023-03-13T09:42:56.906Z,94503.84
2023-03-13T09:45:33.168Z,94513.13
2023-03-13T09:48:04.464Z,94501.56
2023-03-13T09:50:35.584Z,94497.88
2023-03-13T09:53:10.974Z,94513.84
2023-03-13T09:55:40.935Z,94500.19
2023-03-13T09:58:13.659Z,94492.38
2023-03-13T10:00:44.442Z,94489.63
2023-03-13T10:03:16.981Z,94494.91
2023-03-13T10:05:47.363Z,94490.09
2023-03-13T10:08:17.202Z,94493.22
2023-03-13T10:10:47.013Z,94484.34
2023-03-13T10:13:22.476Z,94473.59
2023-03-13T10:15:53.646Z,94473.81
2023-03-13T10:18:22.241Z,94466.53
2023-03-13T10:20:50.070Z,94468.78
2023-03-13T10:23:22.273Z,94462.16
2023-03-13T10:25:48.667Z,94466.56
2023-03-13T10:28:16.625Z,94467.25
2023-03-13T10:30:48.009Z,94471.22
2023-03-13T10:33:26.518Z,94479.03
2023-03-13T10:36:08.364Z,94472.41
2023-03-13T10:38:44.817Z,94459.16
2023-03-13T10:41:23.208Z,94451.22
2023-03-13T10:43:51.735Z,94451.88
2023-03-13T10:46:24.862Z,94451.72
2023-03-13T10:48:54.491Z,94443.97
2023-03-13T10:51:22.984Z,94432.00
2023-03-13T10:53:50.745Z,94433.91
2023-03-13T10:56:25.258Z,94427.09
2023-03-13T10:58:52.854Z,94428.78
2023-03-13T11:01:22.181Z,94445.34
2023-03-13T11:03:50.704Z,94436.50
2023-03-13T11:06:29.736Z,94427.56
2023-03-13T11:09:04.849Z,94429.16
2023-03-13T11:11:44.356Z,94414.97
2023-03-13T11:14:15.111Z,94423.16
2023-03-13T11:16:48.620Z,94412.13
2023-03-13T11:19:51.031Z,94410.22
2023-03-13T11:22:43.952Z,94418.22
2023-03-13T11:25:20.124Z,94406.41
2023-03-13T11:27:55.353Z,94405.41
2023-03-13T11:30:35.961Z,94401.00
2023-03-13T11:33:22.681Z,94403.91
2023-03-13T11:35:54.281Z,94405.72
2023-03-13T11:38:28.675Z,94390.91
2023-03-13T11:41:08.028Z,94385.94
2023-03-13T11:43:56.023Z,94392.13
2023-03-13T11:46:33.084Z,94371.38
2023-03-13T11:49:14.930Z,94390.13
2023-03-13T11:51:54.617Z,94377.13
2023-03-13T11:54:43.901Z,94398.72
2023-03-13T11:57:15.366Z,94362.41
2023-03-13T11:59:52.442Z,94372.78
2023-03-13T12:02:25.624Z,94386.06
2023-03-13T12:04:56.261Z,94357.72
2023-03-13T12:07:30.000Z,94372.22
2023-03-13T12:10:00.788Z,94368.06
2023-03-13T12:12:37.288Z,94350.97
2023-03-13T12:15:19.048Z,94364.22
2023-03-13T12:17:50.927Z,94329.47
2023-03-13T12:20:23.776Z,94346.09
2023-03-13T12:23:04.193Z,94352.53
2023-03-13T12:25:38.827Z,94345.78
2023-03-13T12:28:18.466Z,94353.56
2023-03-13T12:30:52.191Z,94333.63
2023-03-13T12:33:24.480Z,94321.19
2023-03-13T12:35:57.813Z,94314.47
2023-03-13T12:38:30.226Z,94321.97
2023-03-13T12:41:10.639Z,94310.84
2023-03-13T12:43:39.809Z,94320.16
2023-03-13T12:46:32.866Z,94311.34
2023-03-13T12:49:31.766Z,94311.88
2023-03-13T12:52:25.701Z,94314.50
2023-03-13T12:55:05.839Z,94282.31
2023-03-13T12:58:06.093Z,94272.72
2023-03-13T13:00:36.138Z,94274.81
2023-03-13T13:03:10.364Z,94263.88
2023-03-13T13:05:36.840Z,94270.06
2023-03-13T13:08:03.957Z,94255.00
2023-03-13T13:10:30.643Z,94262.75
2023-03-13T13:13:29.071Z,94263.00
2023-03-13T13:16:02.373Z,94249.97
2023-03-13T13:18:29.921Z,94245.44
2023-03-13T13:21:26.283Z,94235.19
2023-03-13T13:23:55.740Z,94236.47
2023-03-13T13:26:48.037Z,94244.75
2023-03-13T13:29:56.566Z,94228.25
2023-03-13T13:32:44.523Z,94228.44
2023-03-13T13:35:29.412Z,94220.81
2023-03-13T13:38:35.943Z,94242.63
2023-03-13T13:41:05.718Z,94231.00
2023-03-13T13:43:33.786Z,94219.78
2023-03-13T13:46:06.504Z,94226.38
2023-03-13T13:48:35.716Z,94209.63
2023-03-13T13:51:32.681Z,94220.13
2023-03-13T13:54:00.718Z,94203.66
2023-03-13T13:56:46.579Z,94201.81
2023-03-13T13:59:30.888Z,94179.66
2023-03-13T14:02:22.377Z,94189.50
2023-03-13T14:04:54.129Z,94178.97
2023-03-13T14:07:28.488Z,94176.59
2023-03-13T14:10:02.657Z,94169.47
2023-03-13T14:12:31.095Z,94159.63
2023-03-13T14:15:14.793Z,94161.25
2023-03-13T14:17:44.299Z,94148.84
2023-03-13T14:20:29.923Z,94134.09
2023-03-13T14:23:01.497Z,94133.00
2023-03-13T14:25:41.184Z,94123.41
2023-03-13T14:28:16.817Z,94130.50
2023-03-13T14:30:43.692Z,94124.59
2023-03-13T14:33:10.448Z,94117.31
2023-03-13T14:35:39.209Z,94116.81
2023-03-13T14:38:05.782Z,94096.84
2023-03-13T14:40:36.740Z,94092.97
2023-03-13T14:43:04.341Z,94088.00
2023-03-13T14:45:32.880Z,94086.47
2023-03-13T14:48:04.759Z,94078.91
2023-03-13T14:50:32.063Z,94067.56
2023-03-13T14:53:04.216Z,94071.47
2023-03-13T14:55:33.192Z,94061.38
2023-03-13T14:58:02.850Z,94058.56
2023-03-13T15:00:33.416Z,94053.91
2023-03-13T15:03:24.869Z,94040.38
2023-03-13T15:06:04.909Z,94031.53
2023-03-13T15:08:32.610Z,94028.25
2023-03-13T15:10:59.726Z,94025.88
2023-03-13T15:13:32.360Z,94019.31
2023-03-13T15:16:00.211Z,94023.88
2023-03-13T15:18:28.841Z,94001.84
2023-03-13T15:20:57.742Z,94003.09
2023-03-13T15:23:24.791Z,94012.38
2023-03-13T15:25:51.845Z,94000.78
2023-03-13T15:28:19.665Z,94001.78
2023-03-13T15:30:48.495Z,93982.09
2023-03-13T15:33:16.748Z,93974.94
2023-03-13T15:35:44.016Z,93967.88
2023-03-13T15:38:13.938Z,93958.94
2023-03-13T15:40:40.910Z,93962.19
2023-03-13T15:43:08.668Z,93959.66
2023-03-13T15:45:36.608Z,93959.47
2023-03-13T15:48:03.540Z,93953.00
2023-03-13T15:50:30.236Z,93946.44
2023-03-13T15:52:57.375Z,93940.22
2023-03-13T15:55:25.725Z,93935.47
2023-03-13T15:57:52.299Z,93933.66
2023-03-13T16:00:21.396Z,93926.59
2023-03-13T16:02:52.638Z,93915.63
2023-03-13T16:05:19.293Z,93904.22
2023-03-13T16:07:45.847Z,93905.97
2023-03-13T16:10:16.255Z,93885.94
2023-03-13T16:12:42.760Z,93883.66
2023-03-13T16:15:10.787Z,93882.97
2023-03-13T16:17:37.866Z,93868.78
2023-03-13T16:20:11.342Z,93873.31
2023-03-13T16:22:37.752Z,93866.78
2023-03-13T16:25:05.031Z,93864.06
2023-03-13T16:27:31.381Z,93855.06
2023-03-13T16:29:57.776Z,93863.88
2023-03-13T16:32:24.882Z,93851.28
2023-03-13T16:34:51.955Z,93852.50
2023-03-13T16:37:20.035Z,93845.28
2023-03-13T16:39:47.437Z,93829.69
2023-03-13T16:42:13.881Z,93826.06
2023-03-13T16:44:40.502Z,93830.25
2023-03-13T16:47:19.446Z,93832.97
2023-03-13T16:49:47.568Z,93820.34
2023-03-13T16:52:15.929Z,93819.69
2023-03-13T16:54:42.597Z,93809.41
2023-03-13T16:57:11.178Z,93797.81
2023-03-13T16:59:37.592Z,93797.09
2023-03-13T17:02:04.308Z,93789.16
2023-03-13T17:04:31.225Z,93790.59
2023-03-13T17:07:00.580Z,93776.50
2023-03-13T17:09:30.312Z,93772.72
2023-03-13T17:11:56.724Z,93768.13
2023-03-13T17:14:23.101Z,93760.91
2023-03-13T17:16:49.521Z,93750.34
2023-03-13T17:19:16.286Z,93753.22
2023-03-13T17:21:42.756Z,93745.19
2023-03-13T17:24:09.245Z,93750.66
2023-03-13T17:26:38.116Z,93737.72
2023-03-13T17:29:06.920Z,93725.09
2023-03-13T17:31:37.642Z,93728.94
2023-03-13T17:34:04.492Z,93728.69
2023-03-13T17:36:31.432Z,93735.41
2023-03-13T17:38:59.693Z,93732.28
2023-03-13T17:41:31.272Z,93734.09
2023-03-13T17:43:58.870Z,93725.81
2023-03-13T17:46:33.210Z,93732.25
2023-03-13T17:49:00.866Z,93728.34
2023-03-13T17:51:29.228Z,93726.25
2023-03-13T17:53:57.275Z,93723.13
2023-03-13T17:56:25.636Z,93724.91
2023-03-13T17:58:56.944Z,93722.59
2023-03-13T18:01:25.835Z,93719.75
2023-03-13T18:03:52.442Z,93722.31
2023-03-13T18:06:22.400Z,93714.53
2023-03-13T18:08:50.763Z,93714.78
2023-03-13T18:11:18.183Z,93721.22
2023-03-13T18:13:44.848Z,93731.78
2023-03-13T18:16:17.980Z,93737.22
2023-03-13T18:18:45.738Z,93727.91
2023-03-13T18:21:12.345Z,93725.31
2023-03-13T18:23:38.725Z,93716.00
2023-03-13T18:26:22.971Z,93717.22
2023-03-13T18:28:49.423Z,93724.19
2023-03-13T18:31:16.454Z,93720.28
2023-03-13T18:33:42.895Z,93699.63
2023-03-13T18:36:18.379Z,93698.88
2023-03-13T18:38:45.468Z,93693.41
2023-03-13T18:41:12.097Z,93677.13
2023-03-13T18:43:38.618Z,93674.53
2023-03-13T18:46:05.759Z,93655.19
2023-03-13T18:48:32.344Z,93656.75
2023-03-13T18:50:58.844Z,93654.13
2023-03-13T18:53:28.927Z,93638.66
2023-03-13T18:55:55.936Z,93630.03
2023-03-13T18:58:22.478Z,93624.88
2023-03-13T19:00:49.156Z,93609.69
2023-03-13T19:03:19.580Z,93607.31
2023-03-13T19:05:46.178Z,93586.94
2023-03-13T19:08:12.723Z,93573.50
2023-03-13T19:10:40.570Z,93577.84
2023-03-13T19:13:07.062Z,93572.41
2023-03-13T19:15:33.798Z,93565.13
2023-03-13T19:18:02.927Z,93560.72
2023-03-13T19:20:30.184Z,93550.94
2023-03-13T19:22:59.620Z,93554.81
2023-03-13T19:25:26.261Z,93552.78
2023-03-13T19:27:54.093Z,93546.59
2023-03-13T19:30:24.041Z,93526.22
2023-03-13T19:32:54.274Z,93533.97
2023-03-13T19:35:23.778Z,93536.34
2023-03-13T19:37:53.508Z,93527.78
2023-03-13T19:40:26.401Z,93515.41
2023-03-13T19:42:53.610Z,93493.44
2023-03-13T19:45:21.307Z,93526.44
2023-03-13T19:47:47.986Z,93500.38
2023-03-13T19:50:19.492Z,93508.47
2023-03-13T19:52:46.448Z,93516.13
2023-03-13T19:55:13.939Z,93506.59
2023-03-13T19:57:40.899Z,93500.09
2023-03-13T20:00:16.394Z,93490.34
2023-03-13T20:02:43.168Z,93501.69
2023-03-13T20:05:12.545Z,93494.47
2023-03-13T20:07:39.161Z,93509.31
2023-03-13T20:10:06.689Z,93481.81
2023-03-13T20:12:36.533Z,93511.31
2023-03-13T20:15:03.756Z,93520.31
2023-03-13T20:17:31.450Z,93531.44
2023-03-13T20:19:57.944Z,93528.75
2023-03-13T20:22:27.115Z,93531.56
2023-03-13T20:24:55.187Z,93542.63
2023-03-13T20:27:23.679Z,93533.59
2023-03-13T20:29:50.347Z,93544.16
2023-03-13T20:32:16.912Z,93521.47
2023-03-13T20:34:44.372Z,93530.44
2023-03-13T20:37:11.951Z,93534.09
2023-03-13T20:39:38.520Z,93530.00
2023-03-13T20:42:07.092Z,93525.19
2023-03-13T20:44:33.650Z,93516.56
2023-03-13T20:47:00.228Z,93493.69
2023-03-13T20:49:29.119Z,93499.06
2023-03-13T20:51:56.314Z,93458.75
2023-03-13T20:54:22.927Z,93487.03
2023-03-13T20:56:49.514Z,93481.91
2023-03-13T20:59:16.084Z,93490.31
2023-03-13T21:01:45.366Z,93482.34
2023-03-13T21:04:12.073Z,93494.84
2023-03-13T21:06:38.868Z,93482.72
2023-03-13T21:09:06.084Z,93497.50
2023-03-13T21:11:32.960Z,93484.00
2023-03-13T21:14:01.606Z,93482.84
2023-03-13T21:16:28.238Z,93469.97
2023-03-13T21:18:56.942Z,93481.81
2023-03-13T21:21:23.674Z,93468.34
2023-03-13T21:23:52.386Z,93464.75
2023-03-13T21:26:19.904Z,93475.56
2023-03-13T21:28:47.254Z,93474.97
2023-03-13T21:31:16.643Z,93470.31
2023-03-13T21:33:44.605Z,93471.00
2023-03-13T21:36:12.527Z,93474.28
2023-03-13T21:38:39.494Z,93467.19
2023-03-13T21:41:10.981Z,93487.59
2023-03-13T21:43:40.705Z,93481.00
2023-03-13T21:46:07.622Z,93498.06
2023-03-13T21:48:34.262Z,93495.31
2023-03-13T21:51:00.989Z,93509.75
2023-03-13T21:53:27.489Z,93507.97
2023-03-13T21:55:54.334Z,93514.41
2023-03-13T21:58:20.711Z,93515.47
2023-03-13T22:00:47.863Z,93526.03
2023-03-13T22:03:14.471Z,93537.09
2023-03-13T22:05:44.021Z,93542.75
2023-03-13T22:08:10.897Z,93563.38
2023-03-13T22:10:37.978Z,93582.63
2023-03-13T22:13:04.790Z,93596.75
2023-03-13T22:15:31.464Z,93731.28
2023-03-13T22:17:58.889Z,93745.56
2023-03-13T22:20:25.284Z,93756.72
2023-03-13T22:22:51.804Z,93784.91
2023-03-13T22:25:18.344Z,93775.88
2023-03-13T22:27:44.720Z,93792.63
2023-03-13T22:30:12.052Z,93777.50
2023-03-13T22:32:38.518Z,93781.19
2023-03-13T22:35:07.301Z,93801.66
2023-03-13T22:37:33.882Z,93803.38
2023-03-13T22:40:00.309Z,93787.75
2023-03-13T22:42:26.937Z,93778.78
2023-03-13T22:44:55.516Z,93782.91
2023-03-13T22:47:22.240Z,93774.19
2023-03-13T22:49:49.651Z,93764.84
2023-03-13T22:52:16.804Z,93762.25
2023-03-13T22:54:45.669Z,93743.81
2023-03-13T22:57:12.146Z,93770.03
2023-03-13T22:59:38.564Z,93769.44
2023-03-13T23:02:05.231Z,93761.84
2023-03-13T23:04:31.617Z,93787.47
2023-03-13T23:06:58.003Z,93779.53
2023-03-13T23:09:25.062Z,93782.56
2023-03-13T23:11:51.680Z,93772.06
2023-03-13T23:14:18.054Z,93774.31
2023-03-13T23:16:44.710Z,93755.19
2023-03-13T23:19:11.104Z,93751.53
2023-03-13T23:21:37.528Z,93741.75
2023-03-13T23:24:04.378Z,93745.63
2023-03-13T23:26:31.460Z,93744.84
2023-03-13T23:28:59.734Z,93758.16
2023-03-13T23:31:26.306Z,93765.66
2023-03-13T23:33:52.909Z,93749.41
2023-03-13T23:36:19.445Z,93751.59
2023-03-13T23:38:49.361Z,93761.69
2023-03-13T23:41:15.847Z,93775.00
2023-03-13T23:43:42.943Z,93765.19
2023-03-13T23:46:15.958Z,93767.78
2023-03-13T23:48:42.325Z,93777.63
2023-03-13T23:51:09.065Z,93784.84
2023-03-13T23:53:36.520Z,93779.72
2023-03-13T23:56:03.318Z,93775.22
2023-03-13T23:58:29.758Z,93765.44
